createdAt,value
2022-09-12T00:01:56.309Z,12.89
2022-09-12T00:04:31.131Z,12.90
2022-09-12T00:07:02.260Z,12.88
2022-09-12T00:09:37.220Z,12.87
2022-09-12T00:12:24.703Z,12.84
2022-09-12T00:14:57.219Z,12.86
2022-09-12T00:17:29.863Z,12.82
2022-09-12T00:20:02.447Z,12.86
2022-09-12T00:22:42.981Z,12.95
2022-09-12T00:25:18.809Z,12.92
2022-09-12T00:27:59.060Z,12.80
2022-09-12T00:30:35.917Z,12.83
2022-09-12T00:33:10.510Z,12.76
2022-09-12T00:35:50.155Z,12.72
2022-09-12T00:38:32.415Z,12.67
2022-09-12T00:41:06.369Z,12.66
2022-09-12T00:43:47.363Z,12.59
2022-09-12T00:47:02.182Z,12.59
2022-09-12T00:50:13.563Z,12.56
2022-09-12T00:53:09.591Z,12.47
2022-09-12T00:55:47.885Z,12.38
2022-09-12T00:58:48.583Z,12.35
2022-09-12T01:01:32.830Z,12.40
2022-09-12T01:04:26.916Z,12.34
2022-09-12T01:10:20.088Z,12.42
2022-09-12T01:13:07.515Z,12.37
2022-09-12T01:15:46.702Z,12.30
2022-09-12T01:18:43.906Z,12.41
2022-09-12T01:22:38.123Z,12.34
2022-09-12T01:25:33.613Z,12.40
2022-09-12T01:29:05.116Z,12.37
2022-09-12T01:32:11.452Z,12.38
2022-09-12T01:34:56.207Z,12.34
2022-09-12T01:38:06.305Z,12.36
2022-09-12T01:40:47.612Z,12.33
2022-09-12T01:43:54.182Z,12.39
2022-09-12T01:46:38.777Z,12.34
2022-09-12T01:49:14.495Z,12.41
2022-09-12T01:52:19.564Z,12.42
2022-09-12T01:55:23.200Z,12.40
2022-09-12T01:58:59.360Z,12.45
2022-09-12T02:01:38.551Z,12.48
2022-09-12T02:04:29.148Z,12.40
2022-09-12T02:07:19.739Z,12.39
2022-09-12T02:10:19.180Z,12.49
2022-09-12T02:13:49.804Z,12.42
2022-09-12T02:16:50.282Z,12.44
2022-09-12T02:19:40.429Z,12.52
2022-09-12T02:22:25.665Z,12.49
2022-09-12T02:25:07.388Z,12.49
2022-09-12T02:28:16.978Z,12.37
2022-09-12T02:31:30.275Z,12.43
2022-09-12T02:34:37.291Z,12.35
2022-09-12T02:38:03.429Z,12.30
2022-09-12T02:40:47.473Z,12.32
2022-09-12T02:43:15.913Z,12.30
2022-09-12T02:45:43.308Z,12.27
2022-09-12T02:48:13.714Z,12.33
2022-09-12T02:50:42.149Z,12.29
2022-09-12T02:53:10.691Z,12.33
2022-09-12T02:55:40.238Z,12.28
2022-09-12T02:58:13.693Z,12.24
2022-09-12T03:01:08.688Z,12.20
2022-09-12T03:04:11.108Z,12.18
2022-09-12T03:06:52.719Z,12.18
2022-09-12T03:09:26.263Z,12.21
2022-09-12T03:12:32.338Z,12.27
2022-09-12T03:15:25.889Z,12.21
2022-09-12T03:18:32.044Z,12.37
2022-09-12T03:21:34.593Z,12.25
2022-09-12T03:24:04.679Z,12.30
2022-09-12T03:26:38.701Z,12.24
2022-09-12T03:29:08.281Z,12.25
2022-09-12T03:31:36.078Z,12.28
2022-09-12T03:34:03.460Z,12.37
2022-09-12T03:36:31.191Z,12.36
2022-09-12T03:38:58.522Z,12.38
2022-09-12T03:41:25.865Z,12.36
2022-09-12T03:43:53.284Z,12.34
2022-09-12T03:46:20.369Z,12.29
2022-09-12T03:48:47.548Z,12.27
2022-09-12T03:51:14.728Z,12.29
2022-09-12T03:53:42.298Z,12.22
2022-09-12T03:56:11.897Z,12.24
2022-09-12T03:58:39.543Z,12.28
2022-09-12T04:01:12.980Z,12.18
2022-09-12T04:03:45.394Z,12.24
2022-09-12T04:06:15.314Z,12.20
2022-09-12T04:08:43.857Z,12.19
2022-09-12T04:11:14.269Z,12.17
2022-09-12T04:13:43.319Z,12.16
2022-09-12T04:16:12.735Z,12.16
2022-09-12T04:18:40.472Z,12.12
2022-09-12T04:21:10.225Z,12.10
2022-09-12T04:23:38.200Z,12.19
2022-09-12T04:26:06.646Z,12.17
2022-09-12T04:28:35.118Z,12.21
2022-09-12T04:31:05.087Z,12.15
2022-09-12T04:33:32.489Z,12.13
2022-09-12T04:36:11.814Z,12.05
2022-09-12T04:38:39.288Z,12.04
2022-09-12T04:41:14.341Z,11.98
2022-09-12T04:43:42.857Z,11.99
2022-09-12T04:46:11.683Z,12.05
2022-09-12T04:48:39.256Z,12.05
2022-09-12T04:51:20.217Z,11.99
2022-09-12T04:53:52.900Z,12.01
2022-09-12T04:56:20.721Z,12.13
2022-09-12T04:58:48.802Z,12.12
2022-09-12T05:01:17.065Z,12.11
2022-09-12T05:03:45.422Z,12.03
2022-09-12T05:06:22.227Z,12.04
2022-09-12T05:08:49.983Z,12.09
2022-09-12T05:11:24.561Z,12.12
2022-09-12T05:13:53.761Z,12.07
2022-09-12T05:16:22.132Z,12.06
2022-09-12T05:18:50.358Z,12.10
2022-09-12T05:21:20.829Z,12.05
2022-09-12T05:23:53.931Z,12.03
2022-09-12T05:26:24.722Z,12.04
2022-09-12T05:28:54.428Z,12.01
2022-09-12T05:31:24.953Z,12.06
2022-09-12T05:33:58.574Z,12.00
2022-09-12T05:36:29.526Z,12.06
2022-09-12T05:39:00.047Z,12.05
2022-09-12T05:41:34.056Z,12.12
2022-09-12T05:44:05.641Z,12.14
2022-09-12T05:46:46.044Z,12.26
2022-09-12T05:49:14.862Z,12.32
2022-09-12T05:51:49.961Z,12.36
2022-09-12T05:54:25.538Z,12.40
2022-09-12T05:56:56.328Z,12.40
2022-09-12T05:59:24.715Z,12.39
2022-09-12T06:01:53.599Z,12.47
2022-09-12T06:04:21.571Z,12.49
2022-09-12T06:06:50.508Z,12.45
2022-09-12T06:09:18.673Z,12.49
2022-09-12T06:11:48.231Z,12.47
2022-09-12T06:14:18.243Z,12.57
2022-09-12T06:16:58.327Z,12.59
2022-09-12T06:19:28.469Z,12.60
2022-09-12T06:21:57.361Z,12.70
2022-09-12T06:24:25.842Z,12.73
2022-09-12T06:26:56.625Z,12.77
2022-09-12T06:29:26.491Z,12.83
2022-09-12T06:31:54.303Z,12.81
2022-09-12T06:34:22.355Z,12.85
2022-09-12T06:36:51.176Z,12.83
2022-09-12T06:39:25.614Z,12.84
2022-09-12T06:41:53.594Z,12.94
2022-09-12T06:44:34.068Z,13.03
2022-09-12T06:47:02.478Z,12.98
2022-09-12T06:49:32.278Z,13.10
2022-09-12T06:52:00.126Z,13.25
2022-09-12T06:54:28.191Z,13.25
2022-09-12T06:56:56.075Z,13.26
2022-09-12T06:59:23.781Z,13.25
2022-09-12T07:01:59.436Z,13.29
2022-09-12T07:04:28.102Z,13.33
2022-09-12T07:06:56.504Z,13.34
2022-09-12T07:09:24.894Z,13.43
2022-09-12T07:11:53.978Z,13.42
2022-09-12T07:14:22.602Z,13.58
2022-09-12T07:16:50.933Z,13.58
2022-09-12T07:19:18.796Z,13.56
2022-09-12T07:21:46.495Z,13.63
2022-09-12T07:24:14.641Z,13.67
2022-09-12T07:26:42.896Z,13.66
2022-09-12T07:29:36.094Z,13.77
2022-09-12T07:32:06.151Z,13.61
2022-09-12T07:34:35.100Z,13.52
2022-09-12T07:37:03.961Z,13.55
2022-09-12T07:39:32.890Z,13.52
2022-09-12T07:42:00.940Z,13.60
2022-09-12T07:44:29.871Z,13.66
2022-09-12T07:46:57.922Z,13.76
2022-09-12T07:49:26.307Z,13.85
2022-09-12T07:51:54.521Z,13.96
2022-09-12T07:54:22.929Z,14.05
2022-09-12T07:56:51.135Z,14.10
2022-09-12T07:59:35.644Z,14.07
2022-09-12T08:02:16.567Z,13.99
2022-09-12T08:04:50.359Z,14.06
2022-09-12T08:07:19.766Z,14.03
2022-09-12T08:09:47.784Z,14.08
2022-09-12T08:12:16.948Z,14.28
2022-09-12T08:14:44.895Z,14.48
2022-09-12T08:17:12.915Z,14.67
2022-09-12T08:19:41.281Z,14.72
2022-09-12T08:22:08.974Z,14.82
2022-09-12T08:24:36.836Z,14.78
2022-09-12T08:27:08.531Z,14.78
2022-09-12T08:29:38.300Z,14.69
2022-09-12T08:32:06.575Z,14.79
2022-09-12T08:34:35.154Z,15.14
2022-09-12T08:37:04.509Z,15.22
2022-09-12T08:39:35.518Z,15.28
2022-09-12T08:42:07.885Z,15.19
2022-09-12T08:44:35.768Z,15.21
2022-09-12T08:47:21.589Z,15.32
2022-09-12T08:50:06.758Z,15.38
2022-09-12T08:52:59.006Z,15.43
2022-09-12T08:55:44.712Z,15.42
2022-09-12T08:58:24.487Z,15.49
2022-09-12T09:01:08.324Z,15.61
2022-09-12T09:03:45.971Z,15.75
2022-09-12T09:07:13.810Z,16.05
2022-09-12T09:10:12.987Z,16.44
2022-09-12T09:13:07.843Z,16.35
2022-09-12T09:15:59.859Z,16.41
2022-09-12T09:18:35.370Z,16.24
2022-09-12T09:21:20.575Z,16.07
2022-09-12T09:24:00.926Z,16.09
2022-09-12T09:27:43.577Z,16.29
2022-09-12T09:30:27.509Z,16.36
2022-09-12T09:33:04.423Z,16.28
2022-09-12T09:35:36.665Z,16.16
2022-09-12T09:38:49.726Z,16.18
2022-09-12T09:41:51.826Z,16.61
2022-09-12T09:44:19.773Z,16.71
2022-09-12T09:46:54.634Z,16.62
2022-09-12T09:49:27.420Z,16.51
2022-09-12T09:51:58.809Z,16.36
2022-09-12T09:54:50.516Z,16.40
2022-09-12T09:57:48.912Z,16.55
2022-09-12T10:00:27.834Z,16.45
2022-09-12T10:03:17.688Z,16.40
2022-09-12T10:05:59.766Z,16.42
2022-09-12T10:08:38.181Z,16.37
2022-09-12T10:11:31.966Z,16.31
2022-09-12T10:14:01.844Z,16.22
2022-09-12T10:17:02.534Z,16.13
2022-09-12T10:19:38.924Z,15.90
2022-09-12T10:22:16.758Z,15.76
2022-09-12T10:24:52.728Z,16.16
2022-09-12T10:27:30.944Z,16.68
2022-09-12T10:30:18.270Z,17.19
2022-09-12T10:32:51.493Z,17.73
2022-09-12T10:35:21.031Z,17.98
2022-09-12T10:38:22.722Z,18.08
2022-09-12T10:41:08.024Z,18.11
2022-09-12T10:43:49.804Z,18.20
2022-09-12T10:46:20.352Z,18.48
2022-09-12T10:49:13.122Z,18.58
2022-09-12T10:52:00.654Z,18.83
2022-09-12T10:54:29.775Z,18.88
2022-09-12T10:57:10.541Z,18.77
2022-09-12T10:59:55.303Z,18.91
2022-09-12T11:02:36.309Z,18.84
2022-09-12T11:05:11.431Z,18.99
2022-09-12T11:07:52.848Z,19.03
2022-09-12T11:10:45.464Z,19.04
2022-09-12T11:13:28.079Z,19.20
2022-09-12T11:16:24.949Z,19.52
2022-09-12T11:19:25.571Z,19.42
2022-09-12T11:22:02.627Z,19.50
2022-09-12T11:24:51.153Z,19.32
2022-09-12T11:27:29.163Z,19.21
2022-09-12T11:30:09.019Z,19.02
2022-09-12T11:33:09.228Z,18.71
2022-09-12T11:35:53.029Z,18.38
2022-09-12T11:38:26.027Z,18.08
2022-09-12T11:40:56.443Z,17.77
2022-09-12T11:43:39.920Z,17.54
2022-09-12T11:47:00.435Z,17.65
2022-09-12T11:49:40.339Z,17.68
2022-09-12T11:52:15.778Z,17.73
2022-09-12T11:55:07.682Z,17.68
2022-09-12T11:57:44.580Z,17.70
2022-09-12T12:00:18.549Z,18.00
2022-09-12T12:03:24.133Z,18.21
2022-09-12T12:06:02.175Z,18.23
2022-09-12T12:08:32.434Z,18.30
2022-09-12T12:11:04.020Z,18.25
2022-09-12T12:13:34.991Z,18.48
2022-09-12T12:16:16.833Z,18.65
2022-09-12T12:18:46.776Z,18.73
2022-09-12T12:21:41.465Z,18.67
2022-09-12T12:24:10.081Z,18.70
2022-09-12T12:26:41.466Z,18.48
2022-09-12T12:29:11.931Z,18.44
2022-09-12T12:32:04.049Z,18.39
2022-09-12T12:34:35.000Z,18.28
2022-09-12T12:37:25.867Z,18.25
2022-09-12T12:40:04.623Z,18.55
2022-09-12T12:42:48.948Z,18.66
2022-09-12T12:45:20.841Z,18.91
2022-09-12T12:47:54.562Z,18.91
2022-09-12T12:54:04.529Z,18.63
2022-09-12T12:56:40.577Z,18.45
2022-09-12T12:59:25.015Z,18.33
2022-09-12T13:02:00.385Z,18.17
2022-09-12T13:04:37.272Z,18.24
2022-09-12T13:07:12.299Z,18.46
2022-09-12T13:09:47.796Z,18.52
2022-09-12T13:12:24.737Z,18.61
2022-09-12T13:15:06.067Z,18.56
2022-09-12T13:17:44.467Z,18.50
2022-09-12T13:20:40.355Z,18.53
2022-09-12T13:23:26.140Z,18.70
2022-09-12T13:25:58.005Z,18.65
2022-09-12T13:28:33.011Z,18.67
2022-09-12T13:31:15.483Z,18.78
2022-09-12T13:33:49.009Z,18.82
2022-09-12T13:40:31.718Z,18.73
2022-09-12T13:43:15.579Z,18.90
2022-09-12T13:45:48.676Z,19.00
2022-09-12T13:48:26.091Z,19.06
2022-09-12T13:51:03.382Z,19.01
2022-09-12T13:53:42.941Z,19.02
2022-09-12T13:56:18.325Z,18.97
2022-09-12T13:59:14.137Z,18.95
2022-09-12T14:01:47.373Z,18.99
2022-09-12T14:04:33.772Z,19.03
2022-09-12T14:07:10.315Z,19.03
2022-09-12T14:09:43.701Z,18.99
2022-09-12T14:12:38.090Z,19.03
2022-09-12T14:15:09.927Z,19.00
2022-09-12T14:17:44.399Z,18.84
2022-09-12T14:20:19.901Z,18.83
2022-09-12T14:22:51.162Z,18.62
2022-09-12T14:25:24.856Z,18.57
2022-09-12T14:27:59.584Z,18.55
2022-09-12T14:30:34.829Z,18.57
2022-09-12T14:33:11.213Z,18.55
2022-09-12T14:35:46.698Z,18.48
2022-09-12T14:38:15.275Z,18.53
2022-09-12T14:40:49.178Z,18.44
2022-09-12T14:43:32.197Z,18.50
2022-09-12T14:46:17.447Z,18.53
2022-09-12T14:48:55.924Z,18.54
2022-09-12T14:51:28.157Z,18.57
2022-09-12T14:53:59.137Z,18.49
2022-09-12T14:56:55.172Z,18.38
2022-09-12T14:59:40.041Z,18.36
2022-09-12T15:02:18.285Z,18.26
2022-09-12T15:05:05.199Z,18.32
2022-09-12T15:07:42.384Z,18.37
2022-09-12T15:10:25.794Z,18.31
2022-09-12T15:13:16.160Z,18.24
2022-09-12T15:15:56.011Z,18.24
2022-09-12T15:18:27.303Z,18.16
2022-09-12T15:21:01.788Z,18.17
2022-09-12T15:23:41.036Z,18.16
2022-09-12T15:26:12.683Z,18.08
2022-09-12T15:28:44.941Z,18.13
2022-09-12T15:31:16.854Z,18.09
2022-09-12T15:33:45.244Z,18.08
2022-09-12T15:36:16.853Z,18.04
2022-09-12T15:38:46.958Z,17.89
2022-09-12T15:41:23.805Z,17.86
2022-09-12T15:43:52.495Z,17.81
2022-09-12T15:46:21.269Z,17.75
2022-09-12T15:48:49.456Z,17.65
2022-09-12T15:54:17.272Z,17.44
2022-09-12T15:56:51.963Z,17.37
2022-09-12T15:59:19.133Z,17.41
2022-09-12T16:01:51.596Z,17.33
2022-09-12T16:04:23.269Z,17.21
2022-09-12T16:07:04.051Z,17.18
2022-09-12T16:09:33.062Z,17.22
2022-09-12T16:12:10.495Z,17.12
2022-09-12T16:14:38.313Z,17.11
2022-09-12T16:17:24.888Z,17.02
2022-09-12T16:19:52.351Z,16.98
2022-09-12T16:23:07.454Z,17.07
2022-09-12T16:25:34.728Z,16.95
2022-09-12T16:28:04.591Z,16.86
2022-09-12T16:30:35.319Z,16.82
2022-09-12T16:33:02.863Z,16.74
2022-09-12T16:35:31.898Z,16.67
2022-09-12T16:37:59.050Z,16.59
2022-09-12T16:40:26.163Z,16.57
2022-09-12T16:42:53.322Z,16.50
2022-09-12T16:45:20.548Z,16.44
2022-09-12T16:47:47.753Z,16.42
2022-09-12T16:50:14.875Z,16.38
2022-09-12T16:52:42.045Z,16.32
2022-09-12T16:55:10.024Z,16.25
2022-09-12T16:57:37.168Z,16.22
2022-09-12T17:00:05.257Z,16.17
2022-09-12T17:02:32.821Z,16.19
2022-09-12T17:05:00.028Z,16.18
2022-09-12T17:07:27.113Z,16.16
2022-09-12T17:09:54.386Z,16.15
2022-09-12T17:12:21.575Z,16.16
2022-09-12T17:14:48.784Z,16.12
2022-09-12T17:17:16.076Z,16.10
2022-09-12T17:19:43.944Z,16.01
2022-09-12T17:22:11.166Z,16.00
2022-09-12T17:24:38.300Z,15.93
2022-09-12T17:27:05.845Z,15.88
2022-09-12T17:29:35.043Z,15.88
2022-09-12T17:32:02.421Z,15.86
2022-09-12T17:34:29.619Z,15.82
2022-09-12T17:36:56.714Z,15.85
2022-09-12T17:39:23.929Z,15.84
2022-09-12T17:41:51.913Z,15.81
2022-09-12T17:44:20.262Z,15.82
2022-09-12T17:46:47.454Z,15.91
2022-09-12T17:49:22.044Z,16.02
2022-09-12T17:51:49.389Z,15.97
2022-09-12T17:54:18.810Z,15.89
2022-09-12T17:56:49.631Z,15.82
2022-09-12T17:59:21.238Z,15.84
2022-09-12T18:02:08.519Z,15.78
2022-09-12T18:04:35.750Z,15.75
2022-09-12T18:07:02.873Z,15.65
2022-09-12T18:09:32.078Z,15.56
2022-09-12T18:11:59.847Z,15.55
2022-09-12T18:14:27.847Z,15.55
2022-09-12T18:16:57.240Z,15.55
2022-09-12T18:19:24.501Z,15.62
2022-09-12T18:21:51.631Z,15.57
2022-09-12T18:24:19.233Z,15.47
2022-09-12T18:26:46.936Z,15.39
2022-09-12T18:29:17.616Z,15.40
2022-09-12T18:31:45.101Z,15.41
2022-09-12T18:34:13.763Z,15.36
2022-09-12T18:36:42.796Z,15.25
2022-09-12T18:39:10.711Z,15.22
2022-09-12T18:41:37.893Z,15.25
2022-09-12T18:44:06.283Z,15.25
2022-09-12T18:46:35.027Z,15.23
2022-09-12T18:49:02.699Z,15.16
2022-09-12T18:51:34.888Z,15.13
2022-09-12T18:54:08.712Z,15.13
2022-09-12T18:56:38.396Z,15.13
2022-09-12T18:59:07.206Z,15.10
2022-09-12T19:01:36.782Z,15.16
2022-09-12T19:04:05.590Z,15.09
2022-09-12T19:06:39.525Z,15.06
2022-09-12T19:09:09.179Z,14.97
2022-09-12T19:11:39.556Z,14.97
2022-09-12T19:14:08.036Z,14.92
2022-09-12T19:16:35.803Z,14.90
2022-09-12T19:19:03.121Z,14.82
2022-09-12T19:21:32.312Z,14.80
2022-09-12T19:24:03.675Z,14.70
2022-09-12T19:26:32.666Z,14.70
2022-09-12T19:29:02.479Z,14.64
2022-09-12T19:31:30.949Z,14.58
2022-09-12T19:34:05.408Z,14.53
2022-09-12T19:36:49.123Z,14.52
2022-09-12T19:39:17.876Z,14.58
2022-09-12T19:41:45.478Z,14.55
2022-09-12T19:44:12.887Z,14.58
2022-09-12T19:46:40.526Z,14.59
2022-09-12T19:49:09.364Z,14.52
2022-09-12T19:51:37.820Z,14.45
2022-09-12T19:54:06.548Z,14.47
2022-09-12T19:56:34.263Z,14.34
2022-09-12T19:59:01.705Z,14.25
2022-09-12T20:01:29.342Z,14.22
2022-09-12T20:03:57.999Z,14.27
2022-09-12T20:06:26.143Z,14.33
2022-09-12T20:08:53.977Z,14.34
2022-09-12T20:11:23.618Z,14.24
2022-09-12T20:13:51.187Z,14.18
2022-09-12T20:16:22.883Z,14.18
2022-09-12T20:19:01.171Z,14.18
2022-09-12T20:21:35.844Z,14.12
2022-09-12T20:24:04.635Z,14.23
2022-09-12T20:26:33.071Z,14.16
2022-09-12T20:29:00.491Z,14.16
2022-09-12T20:31:27.863Z,14.05
2022-09-12T20:33:55.288Z,14.02
2022-09-12T20:36:22.451Z,13.97
2022-09-12T20:38:52.111Z,13.94
2022-09-12T20:41:20.568Z,13.85
2022-09-12T20:43:54.904Z,13.85
2022-09-12T20:46:23.778Z,13.80
2022-09-12T20:48:52.100Z,13.76
2022-09-12T20:51:20.756Z,13.83
2022-09-12T20:53:48.765Z,13.77
2022-09-12T20:56:16.350Z,13.73
2022-09-12T20:58:44.654Z,13.66
2022-09-12T21:01:17.794Z,13.70
2022-09-12T21:03:46.507Z,13.65
2022-09-12T21:06:17.034Z,13.54
2022-09-12T21:08:45.576Z,13.56
2022-09-12T21:11:13.977Z,13.57
2022-09-12T21:13:41.207Z,13.49
2022-09-12T21:16:12.564Z,13.48
2022-09-12T21:18:41.556Z,13.48
2022-09-12T21:21:10.766Z,13.35
2022-09-12T21:23:46.264Z,13.33
2022-09-12T21:26:13.960Z,13.35
2022-09-12T21:28:41.000Z,13.38
2022-09-12T21:31:08.863Z,13.38
2022-09-12T21:33:36.409Z,13.33
2022-09-12T21:36:07.044Z,13.30
2022-09-12T21:38:34.306Z,13.22
2022-09-12T21:41:14.054Z,13.12
2022-09-12T21:43:42.074Z,13.19
2022-09-12T21:46:10.257Z,13.17
2022-09-12T21:48:37.770Z,13.12
2022-09-12T21:51:05.175Z,13.11
2022-09-12T21:53:33.148Z,13.07
2022-09-12T21:56:01.794Z,13.00
2022-09-12T21:58:28.990Z,12.98
2022-09-12T22:00:56.205Z,12.96
2022-09-12T22:03:23.328Z,12.96
2022-09-12T22:05:58.319Z,12.89
2022-09-12T22:08:25.974Z,12.81
2022-09-12T22:10:53.249Z,12.76
2022-09-12T22:13:20.651Z,12.70
2022-09-12T22:15:52.119Z,12.68
2022-09-12T22:18:19.277Z,12.67
2022-09-12T22:20:46.479Z,12.62
2022-09-12T22:23:42.914Z,12.55
2022-09-12T22:26:10.131Z,12.51
2022-09-12T22:28:37.682Z,12.50
2022-09-12T22:31:05.617Z,12.47
2022-09-12T22:33:32.750Z,12.48
2022-09-12T22:36:00.070Z,12.55
2022-09-12T22:38:27.375Z,12.48
2022-09-12T22:40:54.499Z,12.53
2022-09-12T22:43:21.611Z,12.45
2022-09-12T22:45:48.787Z,12.48
2022-09-12T22:48:17.177Z,12.40
2022-09-12T22:50:45.523Z,12.34
2022-09-12T22:53:12.663Z,12.22
2022-09-12T22:55:39.770Z,12.23
2022-09-12T22:58:06.857Z,12.26
2022-09-12T23:00:34.241Z,12.16
2022-09-12T23:03:01.855Z,12.17
2022-09-12T23:05:29.336Z,12.08
2022-09-12T23:07:56.493Z,12.06
2022-09-12T23:10:23.598Z,12.03
2022-09-12T23:12:50.869Z,12.02
2022-09-12T23:15:18.004Z,12.08
2022-09-12T23:17:45.193Z,12.03
2022-09-12T23:20:12.365Z,11.99
2022-09-12T23:22:39.468Z,11.97
2022-09-12T23:25:07.674Z,12.02
2022-09-12T23:27:35.337Z,11.89
2022-09-12T23:30:02.702Z,11.89
2022-09-12T23:32:30.144Z,11.89
2022-09-12T23:34:57.819Z,11.91
2022-09-12T23:37:26.092Z,11.90
2022-09-12T23:39:53.282Z,11.84
2022-09-12T23:42:20.457Z,11.81
2022-09-12T23:44:47.578Z,11.78
2022-09-12T23:47:14.884Z,11.72
2022-09-12T23:49:42.077Z,11.67
2022-09-12T23:52:09.204Z,11.69
2022-09-12T23:54:36.959Z,11.67
2022-09-12T23:57:04.169Z,11.65
2022-09-12T23:59:31.346Z,11.60
